createdAt,value
2019-03-27T00:01:46.968Z,2.87
2019-03-27T00:04:16.462Z,2.83
2019-03-27T00:06:45.929Z,2.78
2019-03-27T00:09:15.423Z,2.71
2019-03-27T00:11:45.112Z,2.64
2019-03-27T00:14:14.754Z,2.53
2019-03-27T00:16:44.155Z,2.40
2019-03-27T00:19:13.672Z,2.29
2019-03-27T00:21:43.085Z,2.17
2019-03-27T00:24:12.581Z,2.01
2019-03-27T00:26:42.057Z,1.92
2019-03-27T00:29:11.494Z,1.83
2019-03-27T00:31:40.901Z,1.83
2019-03-27T00:34:10.345Z,1.73
2019-03-27T00:36:39.839Z,1.62
2019-03-27T00:39:09.322Z,1.49
2019-03-27T00:41:39.340Z,1.40
2019-03-27T00:44:09.036Z,1.40
2019-03-27T00:47:51.958Z,1.42
2019-03-27T00:50:22.528Z,1.32
2019-03-27T00:52:51.948Z,1.31
2019-03-27T00:55:22.297Z,1.29
2019-03-27T00:57:51.714Z,1.18
2019-03-27T01:00:45.877Z,1.01
2019-03-27T01:03:15.455Z,0.91
2019-03-27T01:05:45.934Z,0.83
2019-03-27T01:08:15.426Z,0.78
2019-03-27T01:10:44.942Z,0.74
2019-03-27T01:13:14.657Z,0.71
2019-03-27T01:15:44.307Z,0.70
2019-03-27T01:18:13.947Z,0.73
2019-03-27T01:20:43.533Z,0.73
2019-03-27T01:23:13.069Z,0.73
2019-03-27T01:25:42.606Z,0.76
2019-03-27T01:28:12.185Z,0.78
2019-03-27T01:30:41.893Z,0.81
2019-03-27T01:33:11.374Z,0.82
2019-03-27T01:35:40.903Z,0.86
2019-03-27T01:38:10.312Z,0.90
2019-03-27T01:40:39.816Z,0.92
2019-03-27T01:43:09.340Z,0.96
2019-03-27T01:45:52.137Z,1.02
2019-03-27T01:48:11.144Z,1.01
2019-03-27T01:50:40.615Z,0.99
2019-03-27T01:53:10.030Z,0.96
2019-03-27T01:55:39.532Z,0.91
2019-03-27T01:58:09.040Z,0.92
2019-03-27T02:00:38.538Z,0.96
2019-03-27T02:03:07.988Z,1.01
2019-03-27T02:05:39.001Z,1.08
2019-03-27T02:08:08.501Z,1.15
2019-03-27T02:10:38.170Z,1.23
2019-03-27T02:13:07.735Z,1.32
2019-03-27T02:15:37.292Z,1.36
2019-03-27T02:18:06.777Z,1.39
2019-03-27T02:20:36.230Z,1.36
2019-03-27T02:23:07.422Z,1.30
2019-03-27T02:25:36.957Z,1.26
2019-03-27T02:28:06.449Z,1.20
2019-03-27T02:30:39.590Z,1.17
2019-03-27T02:33:09.146Z,1.13
2019-03-27T02:35:39.646Z,1.06
2019-03-27T02:38:09.112Z,1.01
2019-03-27T02:40:38.543Z,0.96
2019-03-27T02:43:09.011Z,0.89
2019-03-27T02:45:38.441Z,0.80
2019-03-27T02:48:07.848Z,0.75
2019-03-27T02:50:37.341Z,0.69
2019-03-27T02:53:06.885Z,0.65
2019-03-27T02:55:36.326Z,0.58
2019-03-27T02:58:05.752Z,0.56
2019-03-27T03:00:36.377Z,0.52
2019-03-27T03:03:05.860Z,0.47
2019-03-27T03:05:35.407Z,0.41
2019-03-27T03:08:04.964Z,0.30
2019-03-27T03:10:34.648Z,0.17
2019-03-27T03:13:04.394Z,0.01
2019-03-27T03:15:33.829Z,-0.17
2019-03-27T03:18:03.382Z,-0.33
2019-03-27T03:20:33.896Z,-0.40
2019-03-27T03:23:03.364Z,-0.47
2019-03-27T03:25:32.860Z,-0.52
2019-03-27T03:28:02.345Z,-0.57
2019-03-27T03:30:31.876Z,-0.59
2019-03-27T03:33:01.295Z,-0.63
2019-03-27T03:35:30.768Z,-0.68
2019-03-27T03:38:01.170Z,-0.67
2019-03-27T03:40:30.685Z,-0.54
2019-03-27T03:43:00.257Z,-0.52
2019-03-27T03:45:30.069Z,-0.53
2019-03-27T03:47:59.745Z,-0.56
2019-03-27T03:50:42.847Z,-0.57
2019-03-27T03:53:14.041Z,-0.58
2019-03-27T03:55:44.828Z,-0.62
2019-03-27T03:58:16.613Z,-0.65
2019-03-27T04:00:46.880Z,-0.67
2019-03-27T04:03:17.553Z,-0.62
2019-03-27T04:05:47.087Z,-0.66
2019-03-27T04:08:16.581Z,-0.70
2019-03-27T04:10:46.052Z,-0.70
2019-03-27T04:13:15.661Z,-0.70
2019-03-27T04:15:45.231Z,-0.72
2019-03-27T04:18:14.842Z,-0.67
2019-03-27T04:20:44.359Z,-0.62
2019-03-27T04:23:13.960Z,-0.65
2019-03-27T04:26:08.379Z,-0.66
2019-03-27T04:28:14.566Z,-0.77
2019-03-27T04:30:44.122Z,-0.94
2019-03-27T04:33:13.670Z,-1.04
2019-03-27T04:35:44.039Z,-1.09
2019-03-27T04:38:13.852Z,-1.15
2019-03-27T04:40:43.337Z,-1.25
2019-03-27T04:43:12.832Z,-1.25
2019-03-27T04:45:42.303Z,-1.23
2019-03-27T04:48:11.881Z,-1.17
2019-03-27T04:50:41.296Z,-1.08
2019-03-27T04:53:10.824Z,-0.94
2019-03-27T04:55:40.316Z,-0.81
2019-03-27T04:58:10.907Z,-0.66
2019-03-27T05:00:40.480Z,-0.64
2019-03-27T05:03:10.065Z,-0.69
2019-03-27T05:05:39.632Z,-0.74
2019-03-27T05:08:09.166Z,-0.71
2019-03-27T05:10:38.669Z,-0.76
2019-03-27T05:13:08.284Z,-0.78
2019-03-27T05:15:37.803Z,-0.79
2019-03-27T05:18:07.418Z,-0.81
2019-03-27T05:20:36.915Z,-0.73
2019-03-27T05:23:06.455Z,-0.60
2019-03-27T05:25:35.992Z,-0.46
2019-03-27T05:28:05.514Z,-0.34
2019-03-27T05:30:36.096Z,-0.29
2019-03-27T05:33:05.716Z,-0.32
2019-03-27T05:35:35.341Z,-0.34
2019-03-27T05:38:04.984Z,-0.37
2019-03-27T05:40:36.377Z,-0.28
2019-03-27T05:43:05.948Z,-0.25
2019-03-27T05:45:35.443Z,-0.16
2019-03-27T05:48:05.222Z,-0.05
2019-03-27T05:50:34.664Z,0.03
2019-03-27T05:53:04.188Z,0.11
2019-03-27T05:55:33.679Z,0.19
2019-03-27T05:58:03.138Z,0.24
2019-03-27T06:00:33.518Z,0.28
2019-03-27T06:03:04.124Z,0.31
2019-03-27T06:05:33.557Z,0.34
2019-03-27T06:08:03.101Z,0.37
2019-03-27T06:10:32.592Z,0.41
2019-03-27T06:13:02.094Z,0.42
2019-03-27T06:15:31.537Z,0.45
2019-03-27T06:18:12.453Z,0.50
2019-03-27T06:20:32.472Z,0.53
2019-03-27T06:23:03.421Z,0.56
2019-03-27T06:25:33.008Z,0.59
2019-03-27T06:28:02.573Z,0.63
2019-03-27T06:30:31.995Z,0.65
2019-03-27T06:33:01.453Z,0.76
2019-03-27T06:35:31.078Z,0.83
2019-03-27T06:38:01.099Z,0.89
2019-03-27T06:40:30.600Z,0.97
2019-03-27T06:43:00.212Z,1.02
2019-03-27T06:45:30.771Z,1.00
2019-03-27T06:48:00.399Z,1.08
2019-03-27T06:50:29.941Z,1.07
2019-03-27T06:52:59.473Z,1.17
2019-03-27T06:55:29.137Z,1.24
2019-03-27T06:57:58.769Z,1.35
2019-03-27T07:00:36.645Z,1.48
2019-03-27T07:03:07.609Z,1.58
2019-03-27T07:05:37.047Z,1.73
2019-03-27T07:08:06.688Z,1.81
2019-03-27T07:10:36.192Z,1.81
2019-03-27T07:13:05.634Z,1.88
2019-03-27T07:15:35.875Z,1.95
2019-03-27T07:18:05.513Z,2.21
2019-03-27T07:20:35.117Z,2.21
2019-03-27T07:23:04.610Z,2.32
2019-03-27T07:25:34.048Z,2.49
2019-03-27T07:28:03.593Z,2.72
2019-03-27T07:30:34.382Z,2.72
2019-03-27T07:33:03.902Z,2.94
2019-03-27T07:35:33.510Z,3.00
2019-03-27T07:38:04.017Z,3.00
2019-03-27T07:40:35.037Z,3.22
2019-03-27T07:43:04.666Z,3.27
2019-03-27T07:45:34.223Z,3.32
2019-03-27T07:48:03.751Z,3.47
2019-03-27T07:50:33.309Z,3.54
2019-03-27T07:53:04.448Z,3.58
2019-03-27T07:55:33.955Z,3.65
2019-03-27T07:58:03.378Z,3.70
2019-03-27T08:00:33.938Z,3.90
2019-03-27T08:03:03.413Z,3.94
2019-03-27T08:05:32.909Z,4.05
2019-03-27T08:08:02.411Z,4.19
2019-03-27T08:10:31.906Z,4.29
2019-03-27T08:13:02.449Z,4.38
2019-03-27T08:15:32.142Z,4.54
2019-03-27T08:18:01.536Z,4.64
2019-03-27T08:20:31.203Z,4.82
2019-03-27T08:23:01.521Z,4.88
2019-03-27T18:19:22.627Z,6.60
2019-03-27T18:21:52.234Z,6.57
2019-03-27T18:24:21.711Z,6.57
2019-03-27T18:26:51.196Z,6.57
2019-03-27T18:29:20.778Z,6.58
2019-03-27T18:31:50.324Z,6.60
2019-03-27T18:34:19.781Z,6.58
2019-03-27T18:36:49.399Z,6.62
2019-03-27T18:39:20.080Z,6.61
2019-03-27T18:41:51.747Z,6.61
2019-03-27T18:44:21.431Z,6.63
2019-03-27T18:46:50.924Z,6.61
2019-03-27T18:49:20.628Z,6.62
2019-03-27T18:51:50.121Z,6.62
2019-03-27T18:54:19.584Z,6.63
2019-03-27T18:56:49.079Z,6.63
2019-03-27T18:59:18.688Z,6.63
2019-03-27T19:01:48.121Z,6.62
2019-03-27T19:04:17.679Z,6.62
2019-03-27T19:06:47.189Z,6.62
2019-03-27T19:09:16.677Z,6.62
2019-03-27T19:11:46.385Z,6.63
2019-03-27T19:14:16.862Z,6.61
2019-03-27T19:16:47.303Z,6.59
2019-03-27T19:19:16.886Z,6.56
2019-03-27T19:21:46.506Z,6.55
2019-03-27T19:24:17.052Z,6.53
2019-03-27T19:26:46.894Z,6.52
2019-03-27T19:29:16.480Z,6.50
2019-03-27T19:31:45.919Z,6.48
2019-03-27T19:34:15.543Z,6.47
2019-03-27T19:36:45.933Z,6.45
2019-03-27T19:39:15.637Z,6.44
2019-03-27T19:41:45.274Z,6.43
2019-03-27T19:44:14.731Z,6.43
2019-03-27T19:46:45.291Z,6.43
2019-03-27T19:49:16.820Z,6.44
2019-03-27T19:51:46.448Z,6.45
2019-03-27T19:54:26.531Z,6.47
2019-03-27T19:56:47.350Z,6.49
2019-03-27T19:59:18.238Z,6.49
2019-03-27T20:01:50.615Z,6.50
2019-03-27T20:04:20.564Z,6.50
2019-03-27T20:06:50.017Z,6.51
2019-03-27T20:09:20.038Z,6.51
2019-03-27T20:11:49.666Z,6.52
2019-03-27T20:14:19.330Z,6.54
2019-03-27T20:16:48.817Z,6.55
2019-03-27T20:19:18.372Z,6.57
2019-03-27T20:21:47.875Z,6.59
2019-03-27T20:24:17.420Z,6.61
2019-03-27T20:26:47.221Z,6.62
2019-03-27T20:29:16.645Z,6.63
2019-03-27T20:31:46.259Z,6.64
2019-03-27T20:34:15.734Z,6.66
2019-03-27T20:36:45.200Z,6.68
2019-03-27T20:39:14.686Z,6.69
2019-03-27T20:41:44.346Z,6.71
2019-03-27T20:44:13.900Z,6.71
2019-03-27T20:46:43.347Z,6.71
2019-03-27T20:49:12.784Z,6.72
2019-03-27T20:51:42.229Z,6.74
2019-03-27T20:54:11.638Z,6.75
2019-03-27T20:56:41.141Z,6.76
2019-03-27T20:59:13.802Z,6.78
2019-03-27T21:01:43.423Z,6.80
2019-03-27T21:04:12.871Z,6.82
2019-03-27T21:06:42.557Z,6.78
2019-03-27T21:09:12.113Z,6.71
2019-03-27T21:11:41.916Z,6.61
2019-03-27T21:14:11.355Z,6.53
2019-03-27T21:16:40.839Z,6.46
2019-03-27T21:19:12.532Z,6.41
2019-03-27T21:21:42.487Z,6.39
2019-03-27T21:24:11.994Z,6.38
2019-03-27T21:26:41.611Z,6.39
2019-03-27T21:29:11.295Z,6.39
2019-03-27T21:31:40.850Z,6.40
2019-03-27T21:34:10.336Z,6.42
2019-03-27T21:36:39.848Z,6.43
2019-03-27T21:39:10.139Z,6.47
2019-03-27T21:41:39.653Z,6.52
2019-03-27T21:44:09.069Z,6.54
2019-03-27T21:46:38.500Z,6.60
2019-03-27T21:49:08.009Z,6.67
2019-03-27T21:51:37.445Z,6.72
2019-03-27T21:54:06.862Z,6.72
2019-03-27T21:56:36.449Z,6.73
2019-03-27T21:59:06.007Z,6.72
2019-03-27T22:01:35.475Z,6.70
2019-03-27T22:04:05.024Z,6.70
2019-03-27T22:06:34.525Z,6.70
2019-03-27T22:09:05.450Z,6.71
2019-03-27T22:11:35.425Z,6.70
2019-03-27T22:14:05.085Z,6.71
2019-03-27T22:16:34.607Z,6.73
2019-03-27T22:19:05.312Z,6.73
2019-03-27T22:21:34.867Z,6.73
2019-03-27T22:24:04.455Z,6.74
2019-03-27T22:26:33.904Z,6.74
2019-03-27T22:29:06.357Z,6.75
2019-03-27T22:31:35.900Z,6.75
2019-03-27T22:34:05.507Z,6.75
2019-03-27T22:36:34.925Z,6.73
2019-03-27T22:39:07.261Z,6.72
2019-03-27T22:41:36.870Z,6.71
2019-03-27T22:44:07.327Z,6.71
2019-03-27T22:46:36.833Z,6.74
2019-03-27T22:49:07.279Z,6.74
2019-03-27T22:51:36.781Z,6.76
2019-03-27T22:54:06.245Z,6.77
2019-03-27T22:56:35.683Z,6.77
2019-03-27T22:59:05.280Z,6.78
2019-03-27T23:01:40.708Z,6.80
2019-03-27T23:04:10.129Z,6.83
2019-03-27T23:06:39.887Z,6.83
2019-03-27T23:09:10.004Z,6.85
2019-03-27T23:11:39.598Z,6.89
2019-03-27T23:14:10.814Z,6.95
2019-03-27T23:16:40.295Z,6.97
2019-03-27T23:19:10.888Z,7.00
2019-03-27T23:21:40.741Z,7.00
2019-03-27T23:24:10.363Z,7.01
2019-03-27T23:26:39.817Z,7.02
2019-03-27T23:29:09.287Z,7.03
2019-03-27T23:31:38.783Z,7.03
2019-03-27T23:34:08.277Z,7.04
2019-03-27T23:36:37.772Z,7.05
2019-03-27T23:39:08.662Z,7.06
2019-03-27T23:41:38.080Z,7.03
2019-03-27T23:44:07.750Z,7.02
2019-03-27T23:46:37.244Z,6.98
2019-03-27T23:49:06.740Z,6.92
2019-03-27T23:51:36.157Z,6.87
2019-03-27T23:54:05.699Z,6.80
2019-03-27T23:56:35.140Z,6.74
2019-03-27T23:59:04.816Z,6.70
